Athol, Kansas
Current Conditions -  °F | °C
As of 12:15 AM on Monday 22 Dec 2014 (Local Time) from KHDE Reporting Station
Haze Haze  
Wind Chill: 33°   Ceiling: 600
Heat Index: 39°   Visibility: 5mi
Dew Point: 38°   Wind: 10mph
Humidity: 93%   Direction: 190°S
Pressure: 29.51"   Gusts: NA
Location:  39.77°N, 98.92°W
Report Text: KHDE 220615Z AUTO 19009KT 5SM BR BKN006 OVC011 04/03 A2951 RMK AO2 T00410031
Loading
Personal Weather Stations






























Interactive Weather Map New forecast layout! Learn more

10-Day Weather Forecast

Advertisements
Track Severe Weather on mobile